Laramie, WY

11:06 PM MDT on April 17, 2015 (GMT -0600)
Laramie Regional | | Change Station
CLOSE
Current Station
Airport
Location: Laramie,
Elevation: 7270 ft
Nearby Weather Stations
Active Advisory: Winter Storm Warning

Elev 7270 ft 41.32 °N, 105.67 °W | Updated 13 minutes ago

Mostly Cloudy
Mostly Cloudy
21 °F
Feels Like 21 °F
N
0
Wind Variable Wind from North

Today
High -- | Low -- °F
--% Chance of Precip.
Yesterday
High -- | Low -- °F
Precip. -- in
6:20 AM 7:44 PM
Waning Crescent, 0% visible
Pressure 30.13 in
Visibility 0.5 miles
Clouds
Dew Point 20 °F
Humidity 96%
Rainfall 0.20 in
Snow Depth Not available.
UV Not available.
Pollen 1.00 out of 12
Air Quality Not available.
Flu Activity Local Activity
METAR KLAR 180453Z AUTO 00000KT 1/2SM FZFG VV002 M06/M07 A3007 RMK AO2 SLP203 I1000 T10611067

More Conditions Fewer Conditions

Pressure 30.13 in
Visibility 0.5 miles
Clouds
Dew Point 20 °F
Humidity 96%
Rainfall 0.20 in
Snow Depth Not available.
UV Not available.
Pollen 1.00 out of 12
Air Quality Not available.
Flu Activity Local Activity
METAR KLAR 180453Z AUTO 00000KT 1/2SM FZFG VV002 M06/M07 A3007 RMK AO2 SLP203 I1000 T10611067

More Conditions Fewer Conditions

10-Day Weather Forecast

Almanac

Astronomy

Apr. 17, 2015 Rise Set
Actual Time
Civil Twilight
Nautical Twilight
Astronomical Twilight
Moon
Length of Visible Light
Length of Day
Tomorrow will be .
, % of the Moon is Illuminated

Today's Extremes

State Highs State Lows

Community

WunderPhotos

Upload Photos

1,814,341 photos uploaded!

WunderBlogs® & News

Nearby

Air Quality

  Air Quality AQ Index Pollutant
Not available.

Snow Depth

Station Depth Elevation

Earthquake Activity

City Distance Mag. Time & Date
Minimum magnitude displayed is 2.5.

Coastal Water Temperatures

Place Temperature

Stations

Nearby Weather Stations

Station Location Temp. Windchill Dew Point Humidity Wind Precip. Elev Updated Type
                   
Winter Storm Warning
Statement as of 4:40 PM MDT on April 17, 2015

... Winter Storm Warning remains in effect until 6 am MDT
Saturday...

* timing... through early Saturday morning.

* Additional snow accumulations... 5 to 10 inches. Highest
amounts will be over the southern Laramie range.

* Winds/visibility... north to northeast 15 to 20 mph with gusts to
30 mph. Visibilities will be reduced to less than three quarters
of a mile at times.

* Impacts... roads may be slick and snow covered. Be especially
cautious in the morning as wet and slushy roads could freeze
overnight.

Precautionary/preparedness actions...

A Winter Storm Warning for heavy snow means severe winter weather
conditions are expected or occurring. Significant amounts of
snow are forecast that will make travel dangerous. Only travel in
an emergency. If you must travel... keep an extra flashlight...
food... and water in your vehicle in case of an emergency.